Benacazon, Spain
Current Conditions -  °F | °C
As of 9:00 AM on Sunday 21 Dec 2014 (Local Time) from LEMO Reporting Station
Moderate Fog Moderate Fog  
Wind Chill: 37°   Ceiling: 100
Heat Index: 37°   Visibility: 0.09mi
Dew Point: 37°   Wind: 2mph
Humidity: 100%   Direction: 40°NE
Pressure: 30.42"   Gusts: NA
Location:  37.35°N, 6.2°W
Report Text: LEMO 210800Z 04002KT 0150 R02/0300N R20/0750U FG BCFG VV001 03/03 Q1030 NOSIG
Loading
Personal Weather Stations






























Interactive Weather Map New forecast layout! Learn more

10-Day Weather Forecast

Advertisements
Track Severe Weather on mobile